Terminal Aerodrome Forecast
Issued by NWS

Home | Current Version | Previous Version | Text Only | Print | Product List | Glossary On
Versions: 1 2 3 4 5 6 7 8 9 10 11 12 13 14 15 16 17 18 19 20 21 22 23 24 25 26 27 28
000
FTUS41 KOKX 221915 AAA
TAFHPN
TAF AMD
KHPN 221915Z 2219/2318 10007KT 1SM -RA BR VV003
     FM222200 13005KT 1SM -RA BR OVC004
     FM230200 VRB02KT 1SM BR OVC002
     FM231200 35006KT 1SM BR BKN015 OVC030
     FM231600 02006KT P6SM SCT030
      AMD NOT SKED=

USA.gov is the U.S. government's official web portal to all federal, state and local government web resources and services.